sensor_id;sensor_type;location;lat;lon;timestamp;pressure;altitude;pressure_sealevel;temperature;humidity
49341;BME280;35209;51.050;13.678;2023-02-26T00:03:11;99349.22;;;-1.40;100.00
49341;BME280;35209;51.050;13.678;2023-02-26T00:08:12;99359.53;;;-1.41;100.00
49341;BME280;35209;51.050;13.678;2023-02-26T00:13:14;99362.94;;;-1.42;100.00
49341;BME280;35209;51.050;13.678;2023-02-26T00:18:17;99377.53;;;-1.43;100.00
49341;BME280;35209;51.050;13.678;2023-02-26T00:23:19;99375.00;;;-1.38;100.00
49341;BME280;35209;51.050;13.678;2023-02-26T00:28:21;99382.63;;;-1.58;100.00
49341;BME280;35209;51.050;13.678;2023-02-26T00:33:22;99387.72;;;-1.64;100.00
49341;BME280;35209;51.050;13.678;2023-02-26T00:38:31;99388.69;;;-1.48;100.00
49341;BME280;35209;51.050;13.678;2023-02-26T00:43:35;99397.31;;;-1.45;100.00
49341;BME280;35209;51.050;13.678;2023-02-26T00:59:11;99393.00;;;-1.49;100.00
49341;BME280;35209;51.050;13.678;2023-02-26T01:04:14;99398.91;;;-1.61;100.00
49341;BME280;35209;51.050;13.678;2023-02-26T01:14:29;99403.25;;;-1.58;100.00
49341;BME280;35209;51.050;13.678;2023-02-26T01:24:55;99405.78;;;-1.60;100.00
49341;BME280;35209;51.050;13.678;2023-02-26T01:30:00;99408.34;;;-1.64;100.00
49341;BME280;35209;51.050;13.678;2023-02-26T01:45:28;99413.56;;;-1.52;100.00
49341;BME280;35209;51.050;13.678;2023-02-26T01:50:36;99422.16;;;-1.55;100.00
49341;BME280;35209;51.050;13.678;2023-02-26T01:55:41;99424.75;;;-1.55;100.00
49341;BME280;35209;51.050;13.678;2023-02-26T02:00:44;99438.41;;;-1.68;100.00
49341;BME280;35209;51.050;13.678;2023-02-26T02:05:50;99448.78;;;-1.59;100.00
49341;BME280;35209;51.050;13.678;2023-02-26T02:10:53;99460.84;;;-1.55;100.00
49341;BME280;35209;51.050;13.678;2023-02-26T02:27:01;99466.88;;;-1.46;100.00
49341;BME280;35209;51.050;13.678;2023-02-26T02:32:10;99481.38;;;-1.64;100.00
49341;BME280;35209;51.050;13.678;2023-02-26T02:37:41;99487.47;;;-1.53;100.00
49341;BME280;35209;51.050;13.678;2023-02-26T02:42:57;99493.59;;;-1.38;100.00
49341;BME280;35209;51.050;13.678;2023-02-26T02:48:09;99498.72;;;-1.44;100.00
49341;BME280;35209;51.050;13.678;2023-02-26T02:53:17;99512.41;;;-1.48;100.00
49341;BME280;35209;51.050;13.678;2023-02-26T02:58:25;99515.09;;;-1.33;100.00
49341;BME280;35209;51.050;13.678;2023-02-26T03:03:49;99529.72;;;-1.35;100.00
49341;BME280;35209;51.050;13.678;2023-02-26T03:08:52;99524.56;;;-1.37;100.00
49341;BME280;35209;51.050;13.678;2023-02-26T03:13:54;99540.84;;;-1.41;100.00
49341;BME280;35209;51.050;13.678;2023-02-26T03:19:37;99549.41;;;-1.45;100.00
49341;BME280;35209;51.050;13.678;2023-02-26T03:35:02;99564.94;;;-1.36;100.00
49341;BME280;35209;51.050;13.678;2023-02-26T03:40:10;99574.41;;;-1.35;100.00
49341;BME280;35209;51.050;13.678;2023-02-26T03:45:23;99582.22;;;-1.27;100.00
49341;BME280;35209;51.050;13.678;2023-02-26T03:50:37;99602.84;;;-1.24;100.00
49341;BME280;35209;51.050;13.678;2023-02-26T04:06:48;99613.13;;;-1.30;100.00
49341;BME280;35209;51.050;13.678;2023-02-26T04:11:55;99620.03;;;-1.28;100.00
49341;BME280;35209;51.050;13.678;2023-02-26T04:16:58;99627.88;;;-1.12;100.00
49341;BME280;35209;51.050;13.678;2023-02-26T04:22:00;99637.22;;;-1.28;100.00
49341;BME280;35209;51.050;13.678;2023-02-26T04:27:02;99639.72;;;-1.34;100.00
49341;BME280;35209;51.050;13.678;2023-02-26T04:32:06;99657.84;;;-1.28;100.00
49341;BME280;35209;51.050;13.678;2023-02-26T04:37:07;99663.13;;;-1.13;100.00
49341;BME280;35209;51.050;13.678;2023-02-26T04:42:10;99671.00;;;-0.97;100.00
49341;BME280;35209;51.050;13.678;2023-02-26T04:47:12;99668.31;;;-1.11;100.00
49341;BME280;35209;51.050;13.678;2023-02-26T04:52:15;99673.59;;;-1.00;100.00
49341;BME280;35209;51.050;13.678;2023-02-26T04:57:17;99685.50;;;-1.12;100.00
49341;BME280;35209;51.050;13.678;2023-02-26T05:02:19;99696.75;;;-1.02;100.00
49341;BME280;35209;51.050;13.678;2023-02-26T05:07:24;99704.63;;;-0.90;100.00
49341;BME280;35209;51.050;13.678;2023-02-26T05:12:26;99713.88;;;-1.12;100.00
49341;BME280;35209;51.050;13.678;2023-02-26T05:17:27;99711.28;;;-1.12;100.00
49341;BME280;35209;51.050;13.678;2023-02-26T05:22:29;99718.16;;;-1.12;100.00
49341;BME280;35209;51.050;13.678;2023-02-26T05:27:31;99718.13;;;-1.17;100.00
49341;BME280;35209;51.050;13.678;2023-02-26T05:32:33;99733.66;;;-1.11;100.00
49341;BME280;35209;51.050;13.678;2023-02-26T05:37:35;99741.47;;;-1.05;100.00
49341;BME280;35209;51.050;13.678;2023-02-26T05:42:38;99742.19;;;-1.16;100.00
49341;BME280;35209;51.050;13.678;2023-02-26T05:47:40;99758.41;;;-1.28;100.00
49341;BME280;35209;51.050;13.678;2023-02-26T05:52:42;99769.69;;;-1.18;100.00
49341;BME280;35209;51.050;13.678;2023-02-26T05:57:43;99776.47;;;-1.25;100.00
49341;BME280;35209;51.050;13.678;2023-02-26T06:02:45;99783.28;;;-1.32;100.00
49341;BME280;35209;51.050;13.678;2023-02-26T06:07:47;99790.38;;;-1.12;100.00
49341;BME280;35209;51.050;13.678;2023-02-26T06:12:49;99798.06;;;-1.17;100.00
49341;BME280;35209;51.050;13.678;2023-02-26T06:17:50;99803.97;;;-1.27;100.00
49341;BME280;35209;51.050;13.678;2023-02-26T06:22:52;99810.00;;;-1.27;100.00
49341;BME280;35209;51.050;13.678;2023-02-26T06:27:54;99823.00;;;-1.17;100.00
49341;BME280;35209;51.050;13.678;2023-02-26T06:32:56;99836.78;;;-1.15;100.00
49341;BME280;35209;51.050;13.678;2023-02-26T06:37:57;99836.78;;;-1.15;100.00
49341;BME280;35209;51.050;13.678;2023-02-26T06:42:59;99856.53;;;-1.17;100.00
49341;BME280;35209;51.050;13.678;2023-02-26T06:48:01;99865.13;;;-1.17;100.00
49341;BME280;35209;51.050;13.678;2023-02-26T06:53:03;99868.75;;;-1.03;100.00
49341;BME280;35209;51.050;13.678;2023-02-26T06:58:08;99883.34;;;-1.05;100.00
49341;BME280;35209;51.050;13.678;2023-02-26T07:03:15;99896.25;;;-1.06;100.00
49341;BME280;35209;51.050;13.678;2023-02-26T07:08:17;99894.41;;;-1.13;100.00
49341;BME280;35209;51.050;13.678;2023-02-26T07:13:19;99906.69;;;-0.95;100.00
49341;BME280;35209;51.050;13.678;2023-02-26T07:18:20;99916.03;;;-1.04;100.00
49341;BME280;35209;51.050;13.678;2023-02-26T07:23:22;99923.06;;;-0.92;100.00
49341;BME280;35209;51.050;13.678;2023-02-26T07:28:24;99929.69;;;-1.12;100.00
49341;BME280;35209;51.050;13.678;2023-02-26T07:33:25;99934.22;;;-0.94;100.00
49341;BME280;35209;51.050;13.678;2023-02-26T07:38:28;99943.84;;;-0.81;100.00
49341;BME280;35209;51.050;13.678;2023-02-26T07:43:30;99948.94;;;-0.86;100.00
49341;BME280;35209;51.050;13.678;2023-02-26T07:48:32;99954.09;;;-0.86;100.00
49341;BME280;35209;51.050;13.678;2023-02-26T07:53:34;99962.81;;;-0.78;100.00
49341;BME280;35209;51.050;13.678;2023-02-26T07:58:35;99969.81;;;-0.70;100.00
49341;BME280;35209;51.050;13.678;2023-02-26T08:03:37;99972.28;;;-0.78;100.00
49341;BME280;35209;51.050;13.678;2023-02-26T08:08:39;99977.56;;;-0.67;100.00
49341;BME280;35209;51.050;13.678;2023-02-26T08:13:40;99984.63;;;-0.54;100.00
49341;BME280;35209;51.050;13.678;2023-02-26T08:18:42;99995.50;;;-0.78;100.00
49341;BME280;35209;51.050;13.678;2023-02-26T08:23:44;99998.94;;;-0.78;100.00
49341;BME280;35209;51.050;13.678;2023-02-26T08:28:46;100008.41;;;-0.78;100.00
49341;BME280;35209;51.050;13.678;2023-02-26T08:33:48;100019.78;;;-0.64;100.00
49341;BME280;35209;51.050;13.678;2023-02-26T08:38:51;100024.13;;;-0.60;100.00
49341;BME280;35209;51.050;13.678;2023-02-26T08:43:52;100027.75;;;-0.47;100.00
49341;BME280;35209;51.050;13.678;2023-02-26T08:48:54;100044.97;;;-0.47;100.00
49341;BME280;35209;51.050;13.678;2023-02-26T08:53:56;100045.72;;;-0.56;100.00
49341;BME280;35209;51.050;13.678;2023-02-26T08:58:58;100052.38;;;-0.04;100.00
49341;BME280;35209;51.050;13.678;2023-02-26T09:03:59;100064.44;;;-0.01;98.74
49341;BME280;35209;51.050;13.678;2023-02-26T09:09:01;100064.44;;;-0.03;100.00
49341;BME280;35209;51.050;13.678;2023-02-26T09:14:03;100078.13;;;-0.11;100.00
49341;BME280;35209;51.050;13.678;2023-02-26T09:19:06;100078.31;;;0.06;100.00
49341;BME280;35209;51.050;13.678;2023-02-26T09:24:07;100085.19;;;0.02;99.69
49341;BME280;35209;51.050;13.678;2023-02-26T09:29:09;100106.59;;;-0.05;99.90
49341;BME280;35209;51.050;13.678;2023-02-26T09:34:12;100109.88;;;-0.20;99.52
49341;BME280;35209;51.050;13.678;2023-02-26T09:39:14;100122.91;;;-0.11;99.27
49341;BME280;35209;51.050;13.678;2023-02-26T09:44:19;100121.50;;;0.16;99.09
49341;BME280;35209;51.050;13.678;2023-02-26T09:49:46;100122.34;;;0.13;96.28
49341;BME280;35209;51.050;13.678;2023-02-26T09:54:56;100132.66;;;0.10;97.53
49341;BME280;35209;51.050;13.678;2023-02-26T09:59:59;100141.44;;;0.26;93.62
49341;BME280;35209;51.050;13.678;2023-02-26T10:05:20;100147.56;;;0.33;94.95
49341;BME280;35209;51.050;13.678;2023-02-26T10:15:47;100163.38;;;0.59;93.88
49341;BME280;35209;51.050;13.678;2023-02-26T10:21:14;100174.38;;;0.42;92.85
49341;BME280;35209;51.050;13.678;2023-02-26T10:26:22;100183.75;;;0.31;91.82
49341;BME280;35209;51.050;13.678;2023-02-26T10:36:41;100201.41;;;0.70;88.61
49341;BME280;35209;51.050;13.678;2023-02-26T10:41:45;100200.56;;;0.68;88.83
49341;BME280;35209;51.050;13.678;2023-02-26T10:52:12;100209.94;;;0.59;89.41
49341;BME280;35209;51.050;13.678;2023-02-26T10:57:31;100211.75;;;0.67;86.54
49341;BME280;35209;51.050;13.678;2023-02-26T11:02:39;100220.84;;;1.12;85.34
49341;BME280;35209;51.050;13.678;2023-02-26T11:07:42;100218.38;;;1.26;82.74
49341;BME280;35209;51.050;13.678;2023-02-26T11:12:45;100220.84;;;1.12;82.07
49341;BME280;35209;51.050;13.678;2023-02-26T11:17:49;100214.91;;;1.24;82.75
49341;BME280;35209;51.050;13.678;2023-02-26T11:22:54;100222.81;;;1.41;79.27
49341;BME280;35209;51.050;13.678;2023-02-26T11:28:05;100220.34;;;1.56;79.79
49341;BME280;35209;51.050;13.678;2023-02-26T11:33:21;100224.75;;;1.65;79.87
49341;BME280;35209;51.050;13.678;2023-02-26T11:38:25;100228.78;;;1.29;78.93
49341;BME280;35209;51.050;13.678;2023-02-26T11:44:01;100227.78;;;1.19;79.25
49341;BME280;35209;51.050;13.678;2023-02-26T11:49:04;100233.81;;;1.17;80.21
49341;BME280;35209;51.050;13.678;2023-02-26T11:54:19;100227.63;;;0.99;82.70
49341;BME280;35209;51.050;13.678;2023-02-26T11:59:23;100231.84;;;0.93;83.61
49341;BME280;35209;51.050;13.678;2023-02-26T12:04:25;100237.97;;;1.01;82.61
49341;BME280;35209;51.050;13.678;2023-02-26T12:09:28;100235.56;;;1.19;81.73
49341;BME280;35209;51.050;13.678;2023-02-26T12:20:48;100238.22;;;1.27;80.61
49341;BME280;35209;51.050;13.678;2023-02-26T12:36:31;100247.88;;;1.45;76.67
49341;BME280;35209;51.050;13.678;2023-02-26T12:47:39;100261.56;;;1.29;77.67
49341;BME280;35209;51.050;13.678;2023-02-26T13:19:01;100283.31;;;1.50;80.69
49341;BME280;35209;51.050;13.678;2023-02-26T13:29:28;100281.63;;;1.52;78.80
49341;BME280;35209;51.050;13.678;2023-02-26T13:39:59;100294.88;;;1.88;74.70
49341;BME280;35209;51.050;13.678;2023-02-26T13:50:52;100319.84;;;0.90;92.93
49341;BME280;35209;51.050;13.678;2023-02-26T13:56:14;100324.72;;;0.67;96.66
49341;BME280;35209;51.050;13.678;2023-02-26T14:01:19;100312.56;;;0.61;95.99
49341;BME280;35209;51.050;13.678;2023-02-26T14:11:42;100318.09;;;0.89;95.11
49341;BME280;35209;51.050;13.678;2023-02-26T14:16:48;100314.38;;;0.67;95.39
49341;BME280;35209;51.050;13.678;2023-02-26T14:32:29;100305.06;;;0.81;92.65
49341;BME280;35209;51.050;13.678;2023-02-26T14:37:32;100324.78;;;0.71;92.79
49341;BME280;35209;51.050;13.678;2023-02-26T14:43:17;100324.09;;;0.88;89.80
49341;BME280;35209;51.050;13.678;2023-02-26T14:48:16;100321.88;;;1.17;88.14
49341;BME280;35209;51.050;13.678;2023-02-26T14:58:57;100333.31;;;1.39;81.57
49341;BME280;35209;51.050;13.678;2023-02-26T15:04:13;100339.25;;;1.29;82.36
49341;BME280;35209;51.050;13.678;2023-02-26T15:30:33;100360.28;;;0.82;85.18
49341;BME280;35209;51.050;13.678;2023-02-26T15:35:35;100367.00;;;0.69;85.82
49341;BME280;35209;51.050;13.678;2023-02-26T15:40:37;100366.31;;;0.81;84.79
49341;BME280;35209;51.050;13.678;2023-02-26T15:45:42;100375.56;;;0.63;86.13
49341;BME280;35209;51.050;13.678;2023-02-26T15:50:47;100380.84;;;0.72;86.92
49341;BME280;35209;51.050;13.678;2023-02-26T15:55:52;100376.78;;;0.93;83.12
49341;BME280;35209;51.050;13.678;2023-02-26T16:00:59;100377.75;;;0.99;81.14
49341;BME280;35209;51.050;13.678;2023-02-26T16:06:02;100386.16;;;0.82;82.40
49341;BME280;35209;51.050;13.678;2023-02-26T16:11:04;100403.47;;;0.86;81.08
49341;BME280;35209;51.050;13.678;2023-02-26T16:16:11;100397.19;;;0.70;82.02
49341;BME280;35209;51.050;13.678;2023-02-26T16:21:35;100402.38;;;0.70;82.37
49341;BME280;35209;51.050;13.678;2023-02-26T16:26:42;100406.53;;;0.59;80.93
49341;BME280;35209;51.050;13.678;2023-02-26T16:31:50;100405.63;;;0.57;80.94
49341;BME280;35209;51.050;13.678;2023-02-26T16:36:54;100417.69;;;0.56;80.99
49341;BME280;35209;51.050;13.678;2023-02-26T16:42:07;100415.88;;;0.49;81.01
49341;BME280;35209;51.050;13.678;2023-02-26T16:47:09;100430.50;;;0.48;81.11
49341;BME280;35209;51.050;13.678;2023-02-26T16:52:15;100434.88;;;0.51;81.32
49341;BME280;35209;51.050;13.678;2023-02-26T16:57:27;100445.84;;;0.36;83.05
49341;BME280;35209;51.050;13.678;2023-02-26T17:02:34;100455.91;;;0.21;84.81
49341;BME280;35209;51.050;13.678;2023-02-26T17:07:46;100466.72;;;0.48;83.03
49341;BME280;35209;51.050;13.678;2023-02-26T17:12:51;100476.97;;;0.42;84.41
49341;BME280;35209;51.050;13.678;2023-02-26T17:17:53;100480.56;;;0.50;83.52
49341;BME280;35209;51.050;13.678;2023-02-26T17:23:01;100487.44;;;0.50;83.55
49341;BME280;35209;51.050;13.678;2023-02-26T17:28:04;100492.09;;;0.18;87.43
49341;BME280;35209;51.050;13.678;2023-02-26T17:33:10;100500.94;;;0.32;87.36
49341;BME280;35209;51.050;13.678;2023-02-26T17:38:14;100516.63;;;0.43;85.65
49341;BME280;35209;51.050;13.678;2023-02-26T17:43:16;100514.75;;;0.34;84.55
49341;BME280;35209;51.050;13.678;2023-02-26T17:48:18;100523.50;;;0.41;84.86
49341;BME280;35209;51.050;13.678;2023-02-26T17:53:21;100534.56;;;0.34;84.67
49341;BME280;35209;51.050;13.678;2023-02-26T17:58:29;100539.50;;;0.20;86.23
49341;BME280;35209;51.050;13.678;2023-02-26T18:03:30;100545.91;;;-0.07;87.67
49341;BME280;35209;51.050;13.678;2023-02-26T18:08:33;100545.84;;;-0.10;88.08
49341;BME280;35209;51.050;13.678;2023-02-26T18:13:35;100558.47;;;-0.23;89.50
49341;BME280;35209;51.050;13.678;2023-02-26T18:18:37;100558.31;;;-0.31;90.46
49341;BME280;35209;51.050;13.678;2023-02-26T18:23:39;100555.28;;;-0.12;88.79
49341;BME280;35209;51.050;13.678;2023-02-26T18:28:42;100570.03;;;-0.06;88.16
49341;BME280;35209;51.050;13.678;2023-02-26T18:33:44;100574.44;;;-0.01;85.89
49341;BME280;35209;51.050;13.678;2023-02-26T18:38:46;100582.84;;;-0.12;86.99
49341;BME280;35209;51.050;13.678;2023-02-26T18:43:48;100590.00;;;0.03;86.69
49341;BME280;35209;51.050;13.678;2023-02-26T18:48:50;100593.66;;;-0.30;91.07
49341;BME280;35209;51.050;13.678;2023-02-26T18:53:51;100593.31;;;-0.45;91.99
49341;BME280;35209;51.050;13.678;2023-02-26T18:58:54;100603.53;;;-0.52;91.68
49341;BME280;35209;51.050;13.678;2023-02-26T19:03:56;100620.78;;;-0.49;89.33
49341;BME280;35209;51.050;13.678;2023-02-26T19:08:58;100618.53;;;-0.35;88.99
49341;BME280;35209;51.050;13.678;2023-02-26T19:14:03;100629.34;;;-0.53;88.20
49341;BME280;35209;51.050;13.678;2023-02-26T19:19:05;100637.31;;;-0.41;86.56
49341;BME280;35209;51.050;13.678;2023-02-26T19:24:12;100633.34;;;-0.66;88.93
49341;BME280;35209;51.050;13.678;2023-02-26T19:29:17;100639.69;;;-0.52;87.35
49341;BME280;35209;51.050;13.678;2023-02-26T19:34:19;100655.81;;;-0.22;84.55
49341;BME280;35209;51.050;13.678;2023-02-26T19:39:21;100655.78;;;-0.24;83.40
49341;BME280;35209;51.050;13.678;2023-02-26T19:44:24;100664.50;;;-0.19;82.78
49341;BME280;35209;51.050;13.678;2023-02-26T19:49:28;100671.44;;;-0.56;85.57
49341;BME280;35209;51.050;13.678;2023-02-26T19:54:30;100673.28;;;-0.86;88.66
49341;BME280;35209;51.050;13.678;2023-02-26T19:59:32;100685.00;;;-0.99;89.65
49341;BME280;35209;51.050;13.678;2023-02-26T20:04:34;100684.50;;;-1.19;90.76
49341;BME280;35209;51.050;13.678;2023-02-26T20:09:36;100700.50;;;-1.32;88.13
49341;BME280;35209;51.050;13.678;2023-02-26T20:14:38;100703.22;;;-1.26;87.97
49341;BME280;35209;51.050;13.678;2023-02-26T20:19:40;100711.31;;;-1.12;85.69
49341;BME280;35209;51.050;13.678;2023-02-26T20:24:42;100721.63;;;-1.14;84.56
49341;BME280;35209;51.050;13.678;2023-02-26T20:29:44;100726.69;;;-1.17;82.63
49341;BME280;35209;51.050;13.678;2023-02-26T20:34:46;100725.69;;;-1.22;83.03
49341;BME280;35209;51.050;13.678;2023-02-26T20:39:48;100735.28;;;-1.16;82.79
49341;BME280;35209;51.050;13.678;2023-02-26T20:44:50;100727.09;;;-1.33;84.63
49341;BME280;35209;51.050;13.678;2023-02-26T20:49:51;100732.13;;;-1.38;83.01
49341;BME280;35209;51.050;13.678;2023-02-26T20:54:53;100731.09;;;-1.44;84.62
49341;BME280;35209;51.050;13.678;2023-02-26T20:59:54;100740.53;;;-1.45;85.00
49341;BME280;35209;51.050;13.678;2023-02-26T21:04:56;100740.06;;;-1.32;83.19
49341;BME280;35209;51.050;13.678;2023-02-26T21:09:58;100754.53;;;-1.37;82.89
49341;BME280;35209;51.050;13.678;2023-02-26T21:15:00;100756.06;;;-1.42;83.33
49341;BME280;35209;51.050;13.678;2023-02-26T21:20:03;100756.00;;;-1.45;83.09
49341;BME280;35209;51.050;13.678;2023-02-26T21:25:07;100756.63;;;-1.54;84.09
49341;BME280;35209;51.050;13.678;2023-02-26T21:30:10;100768.69;;;-1.53;84.02
49341;BME280;35209;51.050;13.678;2023-02-26T21:35:12;100769.81;;;-1.43;81.77
49341;BME280;35209;51.050;13.678;2023-02-26T21:40:16;100774.94;;;-1.44;81.56
49341;BME280;35209;51.050;13.678;2023-02-26T21:45:18;100772.66;;;-1.64;82.48
49341;BME280;35209;51.050;13.678;2023-02-26T21:50:20;100774.81;;;-1.49;81.38
49341;BME280;35209;51.050;13.678;2023-02-26T21:55:22;100774.66;;;-1.54;82.45
49341;BME280;35209;51.050;13.678;2023-02-26T22:00:23;100778.75;;;-1.32;80.55
49341;BME280;35209;51.050;13.678;2023-02-26T22:05:25;100785.72;;;-1.58;83.77
49341;BME280;35209;51.050;13.678;2023-02-26T22:10:27;100789.41;;;-1.49;82.79
49341;BME280;35209;51.050;13.678;2023-02-26T22:15:29;100794.81;;;-1.69;82.51
49341;BME280;35209;51.050;13.678;2023-02-26T22:20:31;100795.25;;;-1.25;80.33
49341;BME280;35209;51.050;13.678;2023-02-26T22:25:32;100798.63;;;-1.58;81.95
49341;BME280;35209;51.050;13.678;2023-02-26T22:30:34;100796.03;;;-1.58;82.76
49341;BME280;35209;51.050;13.678;2023-02-26T22:35:36;100804.06;;;-1.47;80.75
49341;BME280;35209;51.050;13.678;2023-02-26T22:40:38;100806.47;;;-1.82;82.04
49341;BME280;35209;51.050;13.678;2023-02-26T22:45:39;100810.16;;;-2.02;84.58
49341;BME280;35209;51.050;13.678;2023-02-26T22:50:41;100811.78;;;-2.04;84.00
49341;BME280;35209;51.050;13.678;2023-02-26T22:55:43;100811.16;;;-2.24;86.28
49341;BME280;35209;51.050;13.678;2023-02-26T23:00:45;100813.31;;;-2.11;87.73
49341;BME280;35209;51.050;13.678;2023-02-26T23:05:46;100812.38;;;-2.13;85.75
49341;BME280;35209;51.050;13.678;2023-02-26T23:10:48;100810.06;;;-2.31;87.50
49341;BME280;35209;51.050;13.678;2023-02-26T23:15:50;100807.06;;;-2.44;88.63
49341;BME280;35209;51.050;13.678;2023-02-26T23:20:52;100814.47;;;-2.28;88.24
49341;BME280;35209;51.050;13.678;2023-02-26T23:25:54;100822.31;;;-2.25;86.19
49341;BME280;35209;51.050;13.678;2023-02-26T23:30:56;100817.94;;;-2.26;86.04
49341;BME280;35209;51.050;13.678;2023-02-26T23:35:58;100815.34;;;-2.28;85.85
49341;BME280;35209;51.050;13.678;2023-02-26T23:41:00;100826.09;;;-2.14;84.77
49341;BME280;35209;51.050;13.678;2023-02-26T23:46:02;100835.91;;;-2.29;87.53
49341;BME280;35209;51.050;13.678;2023-02-26T23:51:04;100830.22;;;-2.44;87.47
49341;BME280;35209;51.050;13.678;2023-02-26T23:56:06;100834.38;;;-2.48;87.08
